This is the latest recevied weather packets stored in our database for station/object KF7SOJ. If no packets are shown the sender has not sent any weather packets the latest 10 day(s).
| Time | Temp. | Humidity | Pressure | Rain* | Wind** | Luminosity | Snow |
|---|---|---|---|---|---|---|---|
| 1787806534 | 27.22° C | 30% | 934.9 hPa | 0 mm | - | 0 W/m² | - |
| 1787806233 | 27.22° C | 31% | 934.9 hPa | 0 mm | - | 0 W/m² | - |
| 1787805927 | 27.78° C | 30% | 934.8 hPa | 0 mm | - | 0 W/m² | - |
| 1787805624 | 27.78° C | 28% | 935 hPa | 0 mm | - | 0 W/m² | - |
| 1787805320 | 28.33° C | 27% | 935.1 hPa | 0 mm | - | 0 W/m² | - |
| 1787805018 | 27.22° C | 31% | 935.3 hPa | 0 mm | - | 0 W/m² | - |
| 1787804714 | 26.11° C | 35% | 935.6 hPa | 0 mm | - | 0 W/m² | - |
| 1787804414 | 26.67° C | 35% | 935.5 hPa | 0 mm | - | 0 W/m² | - |
| 1787804108 | 27.22° C | 30% | 935.7 hPa | 0 mm | - | 0 W/m² | - |
| 1787803804 | 27.22° C | 30% | 935.7 hPa | 0 mm | - | 0 W/m² | - |
| 1787803502 | 27.78° C | 29% | 935.7 hPa | 0 mm | - | 0 W/m² | - |
| 1787803200 | 27.22° C | 30% | 935.5 hPa | 0 mm | - | 0 W/m² | - |
| 1787802897 | 27.22° C | 30% | 935.4 hPa | 0 mm | - | 0 W/m² | - |
| 1787802595 | 27.22° C | 30% | 935.2 hPa | 0 mm | - | 0 W/m² | - |
| 1787802295 | 26.11° C | 32% | 935 hPa | 0 mm | - | 0 W/m² | - |
| 1787801991 | 26.11° C | 30% | 935.3 hPa | 0 mm | - | 0 W/m² | - |
| 1787801686 | 26.67° C | 29% | 935 hPa | 0 mm | - | 0 W/m² | - |
| 1787801385 | 26.67° C | 29% | 934.9 hPa | 0 mm | - | 0 W/m² | - |
| 1787801079 | 26.67° C | 29% | 934.9 hPa | 0 mm | - | 0 W/m² | - |
| 1787800779 | 26.67° C | 30% | 934.9 hPa | 0 mm | - | 0 W/m² | - |
| 1787800474 | 26.67° C | 30% | 934.8 hPa | 0 mm | - | 0 W/m² | - |
| 1787800170 | 26.11° C | 31% | 934.6 hPa | 0 mm | - | 0 W/m² | - |
| 1787799868 | 27.78° C | 29% | 934.6 hPa | 0 mm | - | 0 W/m² | - |
| 1787799565 | 28.33° C | 27% | 934.3 hPa | 0 mm | - | 0 W/m² | - |
| 1787799260 | 28.33° C | 27% | 934.3 hPa | 0 mm | - | 0 W/m² | - |
* Rain latest hour (hover to see other rain measurements)
** Current wind speed in m/s (hover to see current wind gust speed)